createdAt,value
2022-10-16T00:01:27.148Z,67.04
2022-10-16T00:03:54.033Z,66.86
2022-10-16T00:06:22.302Z,67.00
2022-10-16T00:08:49.896Z,66.92
2022-10-16T00:11:20.753Z,66.83
2022-10-16T00:13:49.071Z,66.84
2022-10-16T00:16:16.172Z,66.96
2022-10-16T00:18:43.383Z,67.00
2022-10-16T00:21:16.803Z,67.09
2022-10-16T00:23:43.812Z,67.12
2022-10-16T00:26:13.164Z,67.05
2022-10-16T00:28:40.429Z,67.04
2022-10-16T00:31:09.597Z,66.98
2022-10-16T00:33:37.666Z,67.19
2022-10-16T00:36:05.188Z,67.17
2022-10-16T00:38:32.269Z,67.16
2022-10-16T00:40:58.816Z,67.35
2022-10-16T00:43:41.143Z,67.86
2022-10-16T00:46:28.650Z,68.15
2022-10-16T00:49:05.527Z,67.50
2022-10-16T00:51:36.583Z,67.36
2022-10-16T00:54:10.576Z,67.35
2022-10-16T00:56:37.033Z,67.30
2022-10-16T00:59:12.711Z,67.32
2022-10-16T01:01:39.193Z,67.14
2022-10-16T01:04:05.689Z,67.39
2022-10-16T01:06:52.595Z,67.62
2022-10-16T01:09:33.661Z,67.55
2022-10-16T01:12:38.804Z,67.35
2022-10-16T01:15:28.998Z,67.48
2022-10-16T01:18:21.171Z,67.63
2022-10-16T01:20:55.598Z,67.66
2022-10-16T01:23:25.185Z,67.46
2022-10-16T01:26:27.167Z,67.34
2022-10-16T01:29:30.719Z,67.54
2022-10-16T01:32:14.880Z,67.65
2022-10-16T01:35:14.039Z,67.64
2022-10-16T01:37:56.421Z,67.49
2022-10-16T01:40:26.462Z,67.55
2022-10-16T01:43:07.309Z,67.57
2022-10-16T01:45:35.551Z,67.64
2022-10-16T01:48:03.331Z,67.86
2022-10-16T01:50:30.044Z,67.58
2022-10-16T01:52:59.579Z,67.57
2022-10-16T01:55:32.737Z,67.48
2022-10-16T01:58:02.236Z,67.48
2022-10-16T02:00:30.416Z,67.73
2022-10-16T02:02:58.882Z,67.74
2022-10-16T02:05:38.730Z,67.70
2022-10-16T02:08:05.915Z,67.61
2022-10-16T02:10:33.456Z,67.71
2022-10-16T02:13:07.115Z,67.96
2022-10-16T02:15:33.658Z,67.69
2022-10-16T02:18:00.323Z,67.43
2022-10-16T02:20:33.483Z,67.36
2022-10-16T02:23:04.502Z,67.49
2022-10-16T02:25:35.725Z,67.55
2022-10-16T02:28:12.126Z,67.59
2022-10-16T02:30:44.704Z,67.66
2022-10-16T02:33:13.864Z,67.62
2022-10-16T02:35:41.666Z,67.56
2022-10-16T02:40:57.263Z,67.61
2022-10-16T02:43:23.769Z,67.46
2022-10-16T02:45:50.297Z,67.63
2022-10-16T02:48:16.757Z,67.63
2022-10-16T02:50:43.319Z,67.69
2022-10-16T02:53:09.805Z,67.57
2022-10-16T02:55:36.334Z,67.67
2022-10-16T02:58:02.855Z,67.59
2022-10-16T03:00:29.471Z,67.84
2022-10-16T03:02:56.050Z,67.82
2022-10-16T03:08:09.087Z,67.62
2022-10-16T03:10:35.612Z,67.52
2022-10-16T03:13:02.156Z,67.41
2022-10-16T03:15:28.744Z,67.41
2022-10-16T03:17:56.058Z,67.32
2022-10-16T03:20:22.535Z,67.38
2022-10-16T03:22:49.121Z,67.56
2022-10-16T03:25:15.624Z,67.60
2022-10-16T03:27:42.139Z,67.86
2022-10-16T03:30:09.517Z,67.99
2022-10-16T03:35:23.956Z,67.89
2022-10-16T03:37:50.729Z,68.26
2022-10-16T03:40:18.106Z,67.88
2022-10-16T03:42:45.090Z,67.90
2022-10-16T03:45:12.276Z,67.86
2022-10-16T03:47:38.935Z,68.02
2022-10-16T03:50:06.176Z,68.31
2022-10-16T03:52:32.713Z,68.43
2022-10-16T03:54:59.276Z,68.61
2022-10-16T03:57:26.181Z,68.75
2022-10-16T03:59:52.874Z,68.90
2022-10-16T04:02:19.314Z,69.07
2022-10-16T04:04:45.930Z,69.40
2022-10-16T04:07:12.425Z,69.48
2022-10-16T04:09:38.959Z,69.69
2022-10-16T04:12:05.476Z,69.42
2022-10-16T04:14:31.985Z,69.67
2022-10-16T04:16:58.571Z,69.78
2022-10-16T04:19:25.132Z,69.73
2022-10-16T04:21:51.742Z,70.03
2022-10-16T04:24:18.189Z,69.93
2022-10-16T04:26:44.648Z,70.15
2022-10-16T04:29:11.154Z,70.16
2022-10-16T04:31:37.617Z,70.03
2022-10-16T04:34:04.090Z,70.14
2022-10-16T04:36:30.623Z,70.26
2022-10-16T04:38:57.357Z,70.44
2022-10-16T04:41:23.921Z,70.24
2022-10-16T04:43:50.574Z,70.14
2022-10-16T04:46:17.227Z,70.23
2022-10-16T04:48:43.827Z,70.13
2022-10-16T04:51:10.357Z,69.69
2022-10-16T04:53:36.884Z,69.83
2022-10-16T04:56:03.637Z,69.77
2022-10-16T04:58:30.297Z,69.60
2022-10-16T05:00:56.837Z,69.81
2022-10-16T05:03:23.466Z,69.51
2022-10-16T05:05:50.182Z,69.83
2022-10-16T05:08:17.580Z,69.63
2022-10-16T05:10:44.985Z,69.79
2022-10-16T05:13:11.915Z,69.77
2022-10-16T05:15:38.450Z,69.55
2022-10-16T05:18:05.123Z,69.57
2022-10-16T05:20:31.723Z,69.83
2022-10-16T05:22:58.422Z,69.76
2022-10-16T05:25:25.174Z,69.57
2022-10-16T05:27:51.716Z,69.56
2022-10-16T05:30:18.867Z,69.57
2022-10-16T05:32:49.459Z,69.38
2022-10-16T05:35:16.272Z,69.35
2022-10-16T05:37:43.319Z,69.63
2022-10-16T05:40:10.960Z,69.43
2022-10-16T05:42:37.535Z,69.44
2022-10-16T05:45:06.020Z,69.44
2022-10-16T05:47:32.611Z,69.46
2022-10-16T05:49:59.155Z,69.50
2022-10-16T05:52:25.791Z,69.41
2022-10-16T05:54:52.320Z,69.61
2022-10-16T05:57:18.854Z,69.41
2022-10-16T05:59:45.351Z,69.40
2022-10-16T06:02:14.314Z,69.21
2022-10-16T06:04:41.163Z,68.94
2022-10-16T06:07:07.764Z,69.11
2022-10-16T06:09:34.335Z,68.81
2022-10-16T06:12:00.803Z,68.93
2022-10-16T06:14:27.459Z,69.11
2022-10-16T06:16:54.033Z,68.85
2022-10-16T06:19:20.547Z,68.91
2022-10-16T06:21:47.012Z,68.84
2022-10-16T06:24:13.519Z,68.77
2022-10-16T06:26:40.047Z,68.91
2022-10-16T06:29:06.637Z,68.89
2022-10-16T06:31:33.306Z,68.75
2022-10-16T06:34:01.029Z,68.83
2022-10-16T06:36:28.023Z,68.79
2022-10-16T06:38:54.957Z,68.90
2022-10-16T06:41:23.268Z,68.89
2022-10-16T06:43:50.044Z,68.94
2022-10-16T06:46:19.069Z,69.13
2022-10-16T06:48:46.090Z,69.32
2022-10-16T06:51:16.949Z,69.19
2022-10-16T06:54:02.746Z,69.08
2022-10-16T06:56:30.258Z,69.00
2022-10-16T06:58:56.720Z,69.09
2022-10-16T07:01:25.041Z,69.11
2022-10-16T07:03:52.518Z,69.18
2022-10-16T07:06:21.217Z,69.15
2022-10-16T07:08:48.697Z,69.00
2022-10-16T07:11:20.089Z,69.06
2022-10-16T07:13:50.954Z,69.36
2022-10-16T07:16:23.154Z,69.40
2022-10-16T07:18:49.666Z,69.70
2022-10-16T07:21:18.989Z,69.54
2022-10-16T07:23:45.640Z,69.83
2022-10-16T07:26:12.574Z,69.70
2022-10-16T07:28:39.637Z,69.72
2022-10-16T07:31:08.664Z,69.76
2022-10-16T07:33:36.186Z,69.83
2022-10-16T07:36:02.871Z,69.91
2022-10-16T07:38:29.342Z,69.76
2022-10-16T07:41:07.569Z,69.55
2022-10-16T07:43:34.500Z,70.01
2022-10-16T07:46:04.012Z,70.00
2022-10-16T07:48:35.003Z,70.02
2022-10-16T07:51:06.854Z,69.76
2022-10-16T07:53:34.460Z,69.93
2022-10-16T07:56:03.753Z,69.82
2022-10-16T07:58:30.467Z,69.69
2022-10-16T08:00:57.874Z,69.61
2022-10-16T08:03:25.525Z,69.65
2022-10-16T08:05:52.810Z,69.71
2022-10-16T08:08:20.130Z,69.61
2022-10-16T08:10:46.860Z,69.68
2022-10-16T08:13:13.356Z,69.34
2022-10-16T08:15:39.912Z,69.04
2022-10-16T08:18:06.653Z,69.17
2022-10-16T08:20:34.412Z,68.77
2022-10-16T08:23:01.540Z,68.66
2022-10-16T08:25:29.070Z,68.65
2022-10-16T08:27:56.138Z,68.45
2022-10-16T08:30:24.784Z,68.11
2022-10-16T08:32:51.565Z,68.01
2022-10-16T08:35:18.170Z,67.69
2022-10-16T08:37:44.929Z,67.76
2022-10-16T08:40:21.452Z,66.77
2022-10-16T08:43:09.819Z,66.16
2022-10-16T08:45:49.470Z,66.03
2022-10-16T08:48:24.969Z,66.66
2022-10-16T08:50:53.105Z,67.00
2022-10-16T08:53:23.982Z,66.81
2022-10-16T08:55:54.627Z,66.29
2022-10-16T08:58:29.002Z,64.93
2022-10-16T09:01:01.172Z,66.57
2022-10-16T09:04:13.515Z,66.29
2022-10-16T09:06:43.012Z,63.90
2022-10-16T09:09:46.707Z,64.89
2022-10-16T09:12:22.659Z,64.71
2022-10-16T09:15:17.739Z,64.84
2022-10-16T09:17:59.416Z,65.32
2022-10-16T09:20:43.769Z,64.75
2022-10-16T09:23:15.942Z,64.82
2022-10-16T09:25:46.506Z,64.58
2022-10-16T09:28:13.136Z,65.52
2022-10-16T09:30:39.816Z,65.27
2022-10-16T09:33:07.521Z,65.12
2022-10-16T09:35:39.038Z,64.10
2022-10-16T09:38:06.406Z,65.03
2022-10-16T09:40:39.099Z,63.28
2022-10-16T09:43:21.343Z,63.89
2022-10-16T09:45:55.573Z,63.31
2022-10-16T09:48:22.495Z,64.44
2022-10-16T09:51:00.304Z,62.43
2022-10-16T09:53:44.224Z,64.05
2022-10-16T09:56:14.063Z,63.61
2022-10-16T09:58:50.202Z,62.79
2022-10-16T10:01:16.726Z,63.70
2022-10-16T10:03:44.902Z,63.64
2022-10-16T10:06:30.472Z,63.43
2022-10-16T10:09:07.833Z,62.72
2022-10-16T10:11:49.729Z,61.71
2022-10-16T10:14:23.591Z,60.89
2022-10-16T10:16:52.384Z,63.00
2022-10-16T10:19:22.786Z,62.17
2022-10-16T10:21:51.005Z,62.42
2022-10-16T10:24:19.747Z,62.11
2022-10-16T10:27:06.720Z,60.65
2022-10-16T10:29:48.337Z,61.78
2022-10-16T10:32:29.038Z,60.79
2022-10-16T10:35:15.576Z,60.17
2022-10-16T10:37:45.099Z,61.14
2022-10-16T10:40:49.003Z,60.01
2022-10-16T10:43:34.387Z,60.37
2022-10-16T10:46:05.104Z,58.38
2022-10-16T10:48:48.201Z,59.03
2022-10-16T10:51:33.045Z,59.31
2022-10-16T10:54:20.764Z,60.17
2022-10-16T10:56:47.197Z,61.81
2022-10-16T10:59:33.392Z,59.25
2022-10-16T11:02:02.975Z,57.15
2022-10-16T11:04:35.169Z,56.28
2022-10-16T11:07:27.968Z,56.45
2022-10-16T11:10:10.252Z,56.35
2022-10-16T11:12:43.421Z,56.25
2022-10-16T11:15:29.208Z,56.19
2022-10-16T11:18:04.259Z,56.51
2022-10-16T11:20:47.600Z,55.67
2022-10-16T11:23:22.992Z,56.29
2022-10-16T11:25:50.092Z,55.53
2022-10-16T11:28:32.742Z,53.97
2022-10-16T11:31:42.152Z,52.11
2022-10-16T11:34:14.716Z,50.24
2022-10-16T11:36:48.256Z,50.30
2022-10-16T11:39:28.490Z,45.31
2022-10-16T11:42:03.969Z,50.83
2022-10-16T11:44:45.464Z,47.82
2022-10-16T11:50:25.840Z,47.72
2022-10-16T11:53:06.230Z,45.83
2022-10-16T11:55:41.917Z,45.90
2022-10-16T11:58:27.052Z,41.33
2022-10-16T12:01:11.896Z,40.77
2022-10-16T12:04:03.870Z,41.62
2022-10-16T12:06:46.974Z,39.57
2022-10-16T12:09:21.047Z,44.36
2022-10-16T12:11:47.632Z,45.48
2022-10-16T12:14:14.105Z,45.85
2022-10-16T12:16:57.413Z,43.14
2022-10-16T12:19:26.353Z,45.20
2022-10-16T12:21:56.883Z,44.00
2022-10-16T12:24:30.784Z,44.84
2022-10-16T12:26:57.728Z,44.23
2022-10-16T12:29:41.925Z,39.95
2022-10-16T12:32:46.348Z,42.47
2022-10-16T12:35:32.858Z,43.84
2022-10-16T12:38:19.069Z,40.26
2022-10-16T12:40:55.189Z,44.85
2022-10-16T12:43:24.934Z,44.34
2022-10-16T12:46:06.992Z,42.24
2022-10-16T12:48:48.246Z,43.24
2022-10-16T12:51:29.407Z,41.52
2022-10-16T12:54:02.205Z,42.90
2022-10-16T12:56:52.696Z,41.41
2022-10-16T12:59:26.065Z,42.82
2022-10-16T13:02:17.659Z,41.00
2022-10-16T13:05:11.778Z,43.68
2022-10-16T13:08:06.871Z,42.23
2022-10-16T13:10:57.975Z,42.29
2022-10-16T13:14:00.188Z,40.88
2022-10-16T13:16:35.653Z,42.45
2022-10-16T13:19:33.983Z,39.78
2022-10-16T13:22:30.522Z,42.66
2022-10-16T13:25:09.015Z,39.97
2022-10-16T13:27:46.519Z,40.45
2022-10-16T13:30:26.855Z,41.73
2022-10-16T13:33:02.121Z,41.31
2022-10-16T13:35:31.415Z,42.00
2022-10-16T13:38:37.355Z,42.68
2022-10-16T13:41:14.291Z,43.41
2022-10-16T13:43:45.786Z,40.22
2022-10-16T13:46:23.622Z,39.57
2022-10-16T13:49:16.376Z,40.25
2022-10-16T13:51:55.308Z,40.92
2022-10-16T13:54:22.132Z,42.71
2022-10-16T13:56:57.781Z,42.19
2022-10-16T13:59:37.621Z,39.72
2022-10-16T14:02:20.490Z,40.09
2022-10-16T14:04:48.333Z,42.10
2022-10-16T14:07:21.563Z,42.36
2022-10-16T14:09:51.591Z,41.32
2022-10-16T14:12:18.222Z,42.06
2022-10-16T14:14:48.181Z,41.90
2022-10-16T14:17:16.902Z,41.90
2022-10-16T14:19:50.430Z,40.70
2022-10-16T14:22:26.185Z,41.08
2022-10-16T14:24:52.934Z,42.49
2022-10-16T14:27:30.038Z,41.61
2022-10-16T14:30:27.081Z,42.94
2022-10-16T14:33:02.020Z,40.66
2022-10-16T14:35:34.944Z,41.64
2022-10-16T14:38:03.929Z,41.64
2022-10-16T14:40:36.584Z,39.98
2022-10-16T14:43:05.128Z,41.53
2022-10-16T14:45:35.173Z,41.24
2022-10-16T14:48:06.044Z,39.46
2022-10-16T14:50:32.755Z,39.35
2022-10-16T14:52:59.675Z,39.81
2022-10-16T14:55:26.782Z,41.24
2022-10-16T14:57:56.928Z,40.75
2022-10-16T15:00:26.372Z,39.66
2022-10-16T15:02:52.875Z,40.63
2022-10-16T15:05:22.225Z,41.42
2022-10-16T15:07:49.395Z,42.16
2022-10-16T15:10:20.079Z,43.22
2022-10-16T15:12:46.881Z,43.79
2022-10-16T15:15:29.292Z,43.93
2022-10-16T15:17:57.428Z,44.56
2022-10-16T15:20:25.380Z,44.45
2022-10-16T15:22:52.152Z,45.00
2022-10-16T15:25:32.593Z,45.09
2022-10-16T15:28:00.648Z,45.97
2022-10-16T15:30:27.805Z,45.94
2022-10-16T15:32:54.777Z,46.47
2022-10-16T15:35:21.549Z,46.63
2022-10-16T15:37:48.895Z,47.00
2022-10-16T15:40:17.328Z,47.17
2022-10-16T15:42:44.440Z,47.58
2022-10-16T15:45:11.951Z,47.73
2022-10-16T15:47:41.220Z,47.81
2022-10-16T15:50:12.447Z,48.17
2022-10-16T15:52:39.871Z,48.18
2022-10-16T15:55:11.538Z,48.68
2022-10-16T15:57:39.184Z,48.94
2022-10-16T16:00:14.257Z,49.60
2022-10-16T16:02:42.802Z,49.54
2022-10-16T16:05:11.161Z,49.94
2022-10-16T16:07:39.470Z,49.99
2022-10-16T16:10:08.578Z,50.41
2022-10-16T16:12:35.315Z,50.55
2022-10-16T16:15:04.926Z,51.12
2022-10-16T16:17:33.949Z,51.06
2022-10-16T16:20:00.632Z,51.75
2022-10-16T16:22:27.575Z,52.06
2022-10-16T16:24:54.692Z,51.93
2022-10-16T16:27:21.218Z,52.50
2022-10-16T16:29:48.512Z,52.78
2022-10-16T16:32:15.144Z,53.15
2022-10-16T16:34:41.638Z,53.29
2022-10-16T16:37:08.744Z,53.32
2022-10-16T16:39:35.392Z,53.79
2022-10-16T16:42:02.011Z,53.57
2022-10-16T16:44:28.512Z,53.98
2022-10-16T16:46:55.065Z,54.04
2022-10-16T16:49:21.677Z,54.28
2022-10-16T16:51:48.355Z,54.61
2022-10-16T16:54:14.901Z,54.86
2022-10-16T16:56:42.392Z,54.94
2022-10-16T16:59:14.252Z,56.34
2022-10-16T17:01:41.062Z,55.78
2022-10-16T17:04:07.915Z,56.04
2022-10-16T17:06:34.749Z,55.94
2022-10-16T17:09:06.044Z,56.97
2022-10-16T17:11:32.807Z,56.25
2022-10-16T17:14:00.564Z,56.62
2022-10-16T17:16:33.381Z,56.91
2022-10-16T17:19:04.931Z,57.05
2022-10-16T17:21:31.542Z,56.88
2022-10-16T17:23:58.166Z,56.82
2022-10-16T17:26:25.465Z,56.90
2022-10-16T17:28:53.792Z,56.92
2022-10-16T17:31:28.814Z,57.59
2022-10-16T17:33:55.635Z,57.45
2022-10-16T17:36:23.403Z,57.25
2022-10-16T17:38:50.179Z,57.39
2022-10-16T17:41:20.063Z,57.63
2022-10-16T17:43:48.138Z,57.95
2022-10-16T17:46:15.930Z,58.08
2022-10-16T17:48:45.116Z,57.94
2022-10-16T17:51:14.185Z,57.66
2022-10-16T17:53:41.599Z,57.99
2022-10-16T17:56:10.699Z,58.25
2022-10-16T17:58:37.278Z,58.39
2022-10-16T18:01:13.397Z,59.41
2022-10-16T18:03:39.936Z,58.57
2022-10-16T18:06:06.558Z,58.80
2022-10-16T18:08:33.371Z,58.95
2022-10-16T18:10:59.859Z,59.05
2022-10-16T18:13:26.358Z,59.08
2022-10-16T18:16:00.705Z,60.38
2022-10-16T18:18:29.593Z,59.27
2022-10-16T18:20:58.026Z,59.36
2022-10-16T18:23:24.690Z,59.82
2022-10-16T18:25:51.401Z,60.03
2022-10-16T18:28:18.344Z,60.01
2022-10-16T18:30:44.860Z,59.88
2022-10-16T18:33:11.490Z,60.15
2022-10-16T18:35:38.364Z,59.85
2022-10-16T18:38:04.816Z,60.13
2022-10-16T18:40:31.324Z,60.28
2022-10-16T18:42:57.799Z,60.38
2022-10-16T18:45:24.351Z,60.61
2022-10-16T18:47:50.839Z,60.51
2022-10-16T18:50:17.337Z,60.37
2022-10-16T18:52:49.807Z,61.51
2022-10-16T18:55:16.806Z,60.50
2022-10-16T18:57:43.366Z,60.54
2022-10-16T19:00:10.264Z,60.91
2022-10-16T19:02:36.792Z,60.73
2022-10-16T19:05:06.234Z,60.96
2022-10-16T19:07:33.043Z,60.96
2022-10-16T19:09:59.585Z,61.04
2022-10-16T19:12:26.383Z,60.86
2022-10-16T19:14:53.172Z,61.19
2022-10-16T19:17:19.720Z,60.99
2022-10-16T19:19:46.245Z,61.13
2022-10-16T19:22:12.713Z,61.25
2022-10-16T19:24:39.358Z,61.19
2022-10-16T19:27:06.749Z,61.54
2022-10-16T19:29:33.861Z,61.63
2022-10-16T19:32:02.719Z,61.42
2022-10-16T19:34:31.772Z,61.78
2022-10-16T19:36:58.280Z,61.79
2022-10-16T19:39:24.736Z,61.88
2022-10-16T19:41:51.439Z,62.12
2022-10-16T19:44:18.549Z,62.14
2022-10-16T19:46:45.301Z,62.28
2022-10-16T19:49:14.072Z,62.43
2022-10-16T19:51:40.583Z,62.13
2022-10-16T19:54:11.543Z,62.40
2022-10-16T19:56:38.334Z,62.34
2022-10-16T19:59:06.746Z,62.19
2022-10-16T20:01:34.470Z,62.28
2022-10-16T20:04:01.161Z,62.40
2022-10-16T20:06:27.678Z,62.38
2022-10-16T20:08:55.072Z,62.39
2022-10-16T20:11:30.519Z,62.79
2022-10-16T20:13:59.163Z,62.29
2022-10-16T20:16:27.149Z,62.42
2022-10-16T20:18:54.588Z,62.45
2022-10-16T20:21:24.631Z,62.98
2022-10-16T20:23:51.268Z,62.66
2022-10-16T20:26:19.865Z,62.94
2022-10-16T20:28:46.473Z,62.82
2022-10-16T20:31:18.865Z,63.73
2022-10-16T20:33:45.369Z,62.97
2022-10-16T20:36:16.376Z,63.77
2022-10-16T20:38:43.240Z,63.15
2022-10-16T20:41:10.726Z,63.17
2022-10-16T20:43:41.101Z,63.51
2022-10-16T20:46:08.627Z,63.33
2022-10-16T20:48:36.049Z,63.35
2022-10-16T20:51:16.611Z,64.35
2022-10-16T20:53:44.440Z,63.48
2022-10-16T20:56:10.917Z,63.65
2022-10-16T20:58:37.439Z,63.49
2022-10-16T21:01:16.417Z,64.89
2022-10-16T21:03:44.425Z,63.89
2022-10-16T21:06:11.183Z,63.88
2022-10-16T21:08:40.091Z,64.05
2022-10-16T21:11:26.796Z,64.72
2022-10-16T21:13:55.546Z,64.08
2022-10-16T21:16:22.407Z,64.02
2022-10-16T21:18:49.048Z,64.00
2022-10-16T21:21:24.593Z,64.73
2022-10-16T21:23:51.644Z,63.91
2022-10-16T21:26:19.554Z,63.90
2022-10-16T21:28:46.257Z,63.78
2022-10-16T21:31:20.234Z,64.76
2022-10-16T21:33:47.115Z,63.79
2022-10-16T21:36:25.864Z,64.93
2022-10-16T21:38:52.891Z,64.08
2022-10-16T21:41:20.707Z,64.17
2022-10-16T21:43:47.330Z,64.30
2022-10-16T21:46:14.703Z,64.20
2022-10-16T21:48:41.336Z,64.29
2022-10-16T21:51:07.932Z,64.31
2022-10-16T21:53:34.573Z,64.34
2022-10-16T21:56:01.051Z,64.21
2022-10-16T21:58:27.594Z,64.38
2022-10-16T22:00:54.095Z,64.34
2022-10-16T22:03:20.617Z,64.28
2022-10-16T22:05:47.079Z,64.40
2022-10-16T22:08:13.585Z,64.47
2022-10-16T22:10:40.103Z,64.46
2022-10-16T22:13:06.600Z,64.31
2022-10-16T22:15:33.081Z,64.42
2022-10-16T22:17:59.571Z,64.59
2022-10-16T22:20:26.078Z,64.47
2022-10-16T22:22:52.545Z,64.71
2022-10-16T22:25:19.104Z,64.91
2022-10-16T22:27:45.593Z,64.95
2022-10-16T22:30:12.078Z,65.10
2022-10-16T22:32:38.624Z,65.05
2022-10-16T22:35:05.544Z,65.01
2022-10-16T22:37:32.083Z,65.24
2022-10-16T22:40:00.935Z,65.12
2022-10-16T22:42:27.857Z,65.30
2022-10-16T22:44:54.431Z,65.39
2022-10-16T22:47:20.936Z,65.38
2022-10-16T22:49:47.431Z,65.49
2022-10-16T22:52:14.064Z,65.18
2022-10-16T22:54:40.515Z,64.99
2022-10-16T22:57:07.064Z,64.80
2022-10-16T22:59:33.679Z,64.93
2022-10-16T23:02:00.172Z,64.81
2022-10-16T23:04:26.648Z,64.82
2022-10-16T23:06:53.180Z,64.75
2022-10-16T23:09:19.655Z,64.73
2022-10-16T23:11:46.182Z,64.78
2022-10-16T23:14:12.811Z,64.68
2022-10-16T23:16:39.336Z,64.69
2022-10-16T23:19:05.889Z,64.71
2022-10-16T23:21:32.638Z,64.58
2022-10-16T23:23:59.160Z,64.84
2022-10-16T23:26:27.150Z,64.71
2022-10-16T23:28:56.720Z,64.84
2022-10-16T23:31:23.891Z,64.98
2022-10-16T23:33:50.507Z,64.68
2022-10-16T23:36:19.761Z,65.00
2022-10-16T23:38:47.681Z,64.75
2022-10-16T23:41:15.132Z,64.68
2022-10-16T23:43:42.087Z,64.44
2022-10-16T23:46:10.669Z,64.29
2022-10-16T23:48:37.352Z,64.53
2022-10-16T23:51:04.911Z,64.42
2022-10-16T23:53:31.400Z,64.51
2022-10-16T23:55:58.140Z,64.61
2022-10-16T23:58:24.717Z,64.63
